sensor_id;sensor_type;location;lat;lon;timestamp;temperature;humidity
34640;DHT22;22600;48.186;11.526;2022-07-29T00:01:20;25.40;63.50
34640;DHT22;22600;48.186;11.526;2022-07-29T00:03:46;25.30;63.50
34640;DHT22;22600;48.186;11.526;2022-07-29T00:06:12;25.30;64.20
34640;DHT22;22600;48.186;11.526;2022-07-29T00:08:38;25.30;63.50
34640;DHT22;22600;48.186;11.526;2022-07-29T00:11:03;24.50;63.00
34640;DHT22;22600;48.186;11.526;2022-07-29T00:13:29;25.30;63.50
34640;DHT22;22600;48.186;11.526;2022-07-29T00:15:54;25.30;63.50
34640;DHT22;22600;48.186;11.526;2022-07-29T00:18:20;25.30;63.40
34640;DHT22;22600;48.186;11.526;2022-07-29T00:20:45;25.30;63.40
34640;DHT22;22600;48.186;11.526;2022-07-29T00:23:11;25.30;64.20
34640;DHT22;22600;48.186;11.526;2022-07-29T00:25:36;25.30;63.50
34640;DHT22;22600;48.186;11.526;2022-07-29T00:28:02;25.30;63.50
34640;DHT22;22600;48.186;11.526;2022-07-29T00:30:28;25.30;64.20
34640;DHT22;22600;48.186;11.526;2022-07-29T00:32:53;25.30;63.50
34640;DHT22;22600;48.186;11.526;2022-07-29T00:35:19;25.30;63.50
34640;DHT22;22600;48.186;11.526;2022-07-29T00:38:03;25.30;63.50
34640;DHT22;22600;48.186;11.526;2022-07-29T00:40:29;25.40;63.60
34640;DHT22;22600;48.186;11.526;2022-07-29T00:42:54;25.30;63.50
34640;DHT22;22600;48.186;11.526;2022-07-29T00:45:21;25.30;63.50
34640;DHT22;22600;48.186;11.526;2022-07-29T00:47:48;25.30;63.50
34640;DHT22;22600;48.186;11.526;2022-07-29T00:50:14;25.30;63.50
34640;DHT22;22600;48.186;11.526;2022-07-29T00:52:41;25.30;63.50
34640;DHT22;22600;48.186;11.526;2022-07-29T00:55:10;25.30;63.50
34640;DHT22;22600;48.186;11.526;2022-07-29T00:57:36;25.30;63.50
34640;DHT22;22600;48.186;11.526;2022-07-29T01:00:08;25.30;63.50
34640;DHT22;22600;48.186;11.526;2022-07-29T01:02:34;25.30;63.50
34640;DHT22;22600;48.186;11.526;2022-07-29T01:05:01;25.30;63.50
34640;DHT22;22600;48.186;11.526;2022-07-29T01:07:28;25.30;64.20
34640;DHT22;22600;48.186;11.526;2022-07-29T01:09:55;25.30;63.50
34640;DHT22;22600;48.186;11.526;2022-07-29T01:12:25;25.30;63.50
34640;DHT22;22600;48.186;11.526;2022-07-29T01:14:52;25.30;63.50
34640;DHT22;22600;48.186;11.526;2022-07-29T01:17:38;25.30;63.50
34640;DHT22;22600;48.186;11.526;2022-07-29T01:20:14;25.30;63.50
34640;DHT22;22600;48.186;11.526;2022-07-29T01:23:13;25.30;62.90
34640;DHT22;22600;48.186;11.526;2022-07-29T01:25:58;25.30;63.50
34640;DHT22;22600;48.186;11.526;2022-07-29T01:31:11;25.30;63.50
34640;DHT22;22600;48.186;11.526;2022-07-29T01:33:43;25.30;63.50
34640;DHT22;22600;48.186;11.526;2022-07-29T01:36:22;25.30;63.50
34640;DHT22;22600;48.186;11.526;2022-07-29T01:38:55;25.30;63.50
34640;DHT22;22600;48.186;11.526;2022-07-29T01:41:23;25.30;63.50
34640;DHT22;22600;48.186;11.526;2022-07-29T01:43:54;25.30;63.50
34640;DHT22;22600;48.186;11.526;2022-07-29T01:46:30;25.30;63.50
34640;DHT22;22600;48.186;11.526;2022-07-29T01:49:27;25.30;63.60
34640;DHT22;22600;48.186;11.526;2022-07-29T01:51:58;25.30;63.60
34640;DHT22;22600;48.186;11.526;2022-07-29T01:56:58;25.30;63.70
34640;DHT22;22600;48.186;11.526;2022-07-29T01:59:25;25.30;63.80
34640;DHT22;22600;48.186;11.526;2022-07-29T02:01:53;26.00;64.40
34640;DHT22;22600;48.186;11.526;2022-07-29T02:04:20;25.30;63.80
34640;DHT22;22600;48.186;11.526;2022-07-29T02:06:48;25.30;63.80
34640;DHT22;22600;48.186;11.526;2022-07-29T02:09:15;25.30;63.80
34640;DHT22;22600;48.186;11.526;2022-07-29T02:11:51;25.30;63.90
34640;DHT22;22600;48.186;11.526;2022-07-29T02:14:22;25.30;63.80
34640;DHT22;22600;48.186;11.526;2022-07-29T02:16:51;25.30;63.80
34640;DHT22;22600;48.186;11.526;2022-07-29T02:19:18;25.30;63.80
34640;DHT22;22600;48.186;11.526;2022-07-29T02:21:45;25.30;63.80
34640;DHT22;22600;48.186;11.526;2022-07-29T02:24:12;25.30;63.80
34640;DHT22;22600;48.186;11.526;2022-07-29T02:26:40;25.30;63.80
34640;DHT22;22600;48.186;11.526;2022-07-29T02:29:07;25.30;63.80
34640;DHT22;22600;48.186;11.526;2022-07-29T02:31:34;25.30;63.90
34640;DHT22;22600;48.186;11.526;2022-07-29T02:34:07;25.40;63.90
34640;DHT22;22600;48.186;11.526;2022-07-29T02:36:34;25.30;63.90
34640;DHT22;22600;48.186;11.526;2022-07-29T02:39:02;25.30;63.90
34640;DHT22;22600;48.186;11.526;2022-07-29T02:41:50;25.30;63.90
34640;DHT22;22600;48.186;11.526;2022-07-29T02:44:21;25.20;63.70
34640;DHT22;22600;48.186;11.526;2022-07-29T02:46:57;25.30;63.80
34640;DHT22;22600;48.186;11.526;2022-07-29T02:49:35;25.30;63.90
34640;DHT22;22600;48.186;11.526;2022-07-29T02:52:04;25.30;63.90
34640;DHT22;22600;48.186;11.526;2022-07-29T02:57:09;25.30;63.90
34640;DHT22;22600;48.186;11.526;2022-07-29T02:59:36;25.30;63.90
34640;DHT22;22600;48.186;11.526;2022-07-29T03:02:04;25.30;63.90
34640;DHT22;22600;48.186;11.526;2022-07-29T03:04:32;25.30;64.00
34640;DHT22;22600;48.186;11.526;2022-07-29T03:06:59;25.30;64.10
34640;DHT22;22600;48.186;11.526;2022-07-29T03:09:25;25.30;64.20
34640;DHT22;22600;48.186;11.526;2022-07-29T03:11:52;25.30;64.00
34640;DHT22;22600;48.186;11.526;2022-07-29T03:14:20;25.30;63.80
34640;DHT22;22600;48.186;11.526;2022-07-29T03:16:46;25.30;63.00
34640;DHT22;22600;48.186;11.526;2022-07-29T03:19:12;25.30;62.40
34640;DHT22;22600;48.186;11.526;2022-07-29T03:21:38;25.30;61.90
34640;DHT22;22600;48.186;11.526;2022-07-29T03:24:04;25.30;61.60
34640;DHT22;22600;48.186;11.526;2022-07-29T03:26:30;25.30;61.30
34640;DHT22;22600;48.186;11.526;2022-07-29T03:28:55;25.20;60.90
34640;DHT22;22600;48.186;11.526;2022-07-29T03:31:21;25.20;60.50
34640;DHT22;22600;48.186;11.526;2022-07-29T03:33:46;25.20;60.50
34640;DHT22;22600;48.186;11.526;2022-07-29T03:36:12;25.20;60.60
34640;DHT22;22600;48.186;11.526;2022-07-29T03:38:40;25.20;60.70
34640;DHT22;22600;48.186;11.526;2022-07-29T03:41:09;25.20;60.00
34640;DHT22;22600;48.186;11.526;2022-07-29T03:43:38;25.20;59.80
34640;DHT22;22600;48.186;11.526;2022-07-29T03:46:06;25.20;59.70
34640;DHT22;22600;48.186;11.526;2022-07-29T03:48:34;25.10;59.60
34640;DHT22;22600;48.186;11.526;2022-07-29T03:51:02;25.10;59.60
34640;DHT22;22600;48.186;11.526;2022-07-29T03:53:28;25.10;59.50
34640;DHT22;22600;48.186;11.526;2022-07-29T03:55:58;28.70;61.30
34640;DHT22;22600;48.186;11.526;2022-07-29T03:58:25;25.10;59.30
34640;DHT22;22600;48.186;11.526;2022-07-29T04:00:52;25.10;59.10
34640;DHT22;22600;48.186;11.526;2022-07-29T04:03:17;25.10;59.00
34640;DHT22;22600;48.186;11.526;2022-07-29T04:05:43;25.10;59.00
34640;DHT22;22600;48.186;11.526;2022-07-29T04:08:08;25.10;59.00
34640;DHT22;22600;48.186;11.526;2022-07-29T04:10:34;25.10;59.00
34640;DHT22;22600;48.186;11.526;2022-07-29T04:13:00;25.10;59.00
34640;DHT22;22600;48.186;11.526;2022-07-29T04:15:25;25.00;59.00
34640;DHT22;22600;48.186;11.526;2022-07-29T04:17:52;25.10;59.00
34640;DHT22;22600;48.186;11.526;2022-07-29T04:20:18;25.00;58.90
34640;DHT22;22600;48.186;11.526;2022-07-29T04:22:43;25.00;58.40
34640;DHT22;22600;48.186;11.526;2022-07-29T04:25:09;25.00;58.90
34640;DHT22;22600;48.186;11.526;2022-07-29T04:27:34;25.00;58.90
34640;DHT22;22600;48.186;11.526;2022-07-29T04:30:01;25.00;58.90
34640;DHT22;22600;48.186;11.526;2022-07-29T04:32:27;25.00;58.90
34640;DHT22;22600;48.186;11.526;2022-07-29T04:34:52;25.00;58.80
34640;DHT22;22600;48.186;11.526;2022-07-29T04:37:18;25.00;58.80
34640;DHT22;22600;48.186;11.526;2022-07-29T04:39:43;25.10;58.90
34640;DHT22;22600;48.186;11.526;2022-07-29T04:42:09;25.00;58.80
34640;DHT22;22600;48.186;11.526;2022-07-29T04:44:35;25.00;58.90
34640;DHT22;22600;48.186;11.526;2022-07-29T04:47:00;25.00;58.80
34640;DHT22;22600;48.186;11.526;2022-07-29T04:49:26;25.00;58.80
34640;DHT22;22600;48.186;11.526;2022-07-29T04:51:51;25.10;58.90
34640;DHT22;22600;48.186;11.526;2022-07-29T04:54:17;25.10;58.80
34640;DHT22;22600;48.186;11.526;2022-07-29T04:56:42;25.10;58.80
34640;DHT22;22600;48.186;11.526;2022-07-29T04:59:08;25.10;58.90
34640;DHT22;22600;48.186;11.526;2022-07-29T05:01:34;25.10;58.80
34640;DHT22;22600;48.186;11.526;2022-07-29T05:03:59;25.10;58.80
34640;DHT22;22600;48.186;11.526;2022-07-29T05:06:25;25.10;58.70
34640;DHT22;22600;48.186;11.526;2022-07-29T05:08:50;25.10;58.70
34640;DHT22;22600;48.186;11.526;2022-07-29T05:11:16;25.10;58.70
34640;DHT22;22600;48.186;11.526;2022-07-29T05:13:41;25.00;58.60
34640;DHT22;22600;48.186;11.526;2022-07-29T05:16:08;25.10;58.70
34640;DHT22;22600;48.186;11.526;2022-07-29T05:18:34;25.10;58.70
34640;DHT22;22600;48.186;11.526;2022-07-29T05:20:59;25.10;58.70
34640;DHT22;22600;48.186;11.526;2022-07-29T05:23:25;25.10;58.80
34640;DHT22;22600;48.186;11.526;2022-07-29T05:25:50;25.20;58.80
34640;DHT22;22600;48.186;11.526;2022-07-29T05:28:16;25.20;58.80
34640;DHT22;22600;48.186;11.526;2022-07-29T05:30:42;25.20;58.80
34640;DHT22;22600;48.186;11.526;2022-07-29T05:33:09;25.20;58.80
34640;DHT22;22600;48.186;11.526;2022-07-29T05:35:35;25.20;58.80
34640;DHT22;22600;48.186;11.526;2022-07-29T05:38:02;25.20;58.70
34640;DHT22;22600;48.186;11.526;2022-07-29T05:40:28;25.20;58.80
34640;DHT22;22600;48.186;11.526;2022-07-29T05:42:54;25.20;58.80
34640;DHT22;22600;48.186;11.526;2022-07-29T05:45:20;25.30;58.80
34640;DHT22;22600;48.186;11.526;2022-07-29T05:47:45;25.20;58.80
34640;DHT22;22600;48.186;11.526;2022-07-29T05:50:11;25.20;58.80
34640;DHT22;22600;48.186;11.526;2022-07-29T05:52:36;25.20;58.80
34640;DHT22;22600;48.186;11.526;2022-07-29T05:55:02;25.30;58.90
34640;DHT22;22600;48.186;11.526;2022-07-29T05:57:29;25.30;58.80
34640;DHT22;22600;48.186;11.526;2022-07-29T05:59:55;25.30;58.90
34640;DHT22;22600;48.186;11.526;2022-07-29T06:02:20;25.30;58.90
34640;DHT22;22600;48.186;11.526;2022-07-29T06:04:46;25.30;58.90
34640;DHT22;22600;48.186;11.526;2022-07-29T06:07:11;25.30;58.90
34640;DHT22;22600;48.186;11.526;2022-07-29T06:09:37;25.30;58.90
34640;DHT22;22600;48.186;11.526;2022-07-29T06:12:03;25.30;58.90
34640;DHT22;22600;48.186;11.526;2022-07-29T06:14:29;25.20;58.70
34640;DHT22;22600;48.186;11.526;2022-07-29T06:16:56;25.30;58.80
34640;DHT22;22600;48.186;11.526;2022-07-29T06:19:21;25.40;58.80
34640;DHT22;22600;48.186;11.526;2022-07-29T06:21:47;25.40;58.80
34640;DHT22;22600;48.186;11.526;2022-07-29T06:24:14;25.40;58.80
34640;DHT22;22600;48.186;11.526;2022-07-29T06:26:40;26.60;59.50
34640;DHT22;22600;48.186;11.526;2022-07-29T06:29:07;25.40;58.70
34640;DHT22;22600;48.186;11.526;2022-07-29T06:31:33;25.50;58.70
34640;DHT22;22600;48.186;11.526;2022-07-29T06:33:58;25.50;58.70
34640;DHT22;22600;48.186;11.526;2022-07-29T06:36:24;25.50;58.60
34640;DHT22;22600;48.186;11.526;2022-07-29T06:38:49;25.50;58.60
34640;DHT22;22600;48.186;11.526;2022-07-29T06:41:15;25.50;58.60
34640;DHT22;22600;48.186;11.526;2022-07-29T06:43:43;25.50;58.60
34640;DHT22;22600;48.186;11.526;2022-07-29T06:46:11;25.50;58.50
34640;DHT22;22600;48.186;11.526;2022-07-29T06:48:37;25.50;58.50
34640;DHT22;22600;48.186;11.526;2022-07-29T06:51:04;25.50;58.40
34640;DHT22;22600;48.186;11.526;2022-07-29T06:53:31;25.50;58.40
34640;DHT22;22600;48.186;11.526;2022-07-29T06:55:57;25.50;58.40
34640;DHT22;22600;48.186;11.526;2022-07-29T06:58:24;25.50;58.40
34640;DHT22;22600;48.186;11.526;2022-07-29T07:00:49;25.50;58.30
34640;DHT22;22600;48.186;11.526;2022-07-29T07:03:16;25.50;58.30
34640;DHT22;22600;48.186;11.526;2022-07-29T07:05:42;25.60;58.30
34640;DHT22;22600;48.186;11.526;2022-07-29T07:08:08;25.50;58.20
34640;DHT22;22600;48.186;11.526;2022-07-29T07:10:34;25.30;58.00
34640;DHT22;22600;48.186;11.526;2022-07-29T07:13:00;25.60;58.20
34640;DHT22;22600;48.186;11.526;2022-07-29T07:15:27;25.60;58.10
34640;DHT22;22600;48.186;11.526;2022-07-29T07:17:53;25.60;58.10
34640;DHT22;22600;48.186;11.526;2022-07-29T07:20:18;25.60;58.10
34640;DHT22;22600;48.186;11.526;2022-07-29T07:22:44;25.60;57.50
34640;DHT22;22600;48.186;11.526;2022-07-29T07:25:10;25.60;58.00
34640;DHT22;22600;48.186;11.526;2022-07-29T07:27:36;25.60;58.00
34640;DHT22;22600;48.186;11.526;2022-07-29T07:30:06;25.60;58.50
34640;DHT22;22600;48.186;11.526;2022-07-29T07:32:33;27.20;58.90
34640;DHT22;22600;48.186;11.526;2022-07-29T07:34:58;25.70;57.90
34640;DHT22;22600;48.186;11.526;2022-07-29T07:37:25;25.60;57.90
34640;DHT22;22600;48.186;11.526;2022-07-29T07:39:51;25.60;57.80
34640;DHT22;22600;48.186;11.526;2022-07-29T07:42:17;25.60;57.90
34640;DHT22;22600;48.186;11.526;2022-07-29T07:44:43;25.60;57.90
34640;DHT22;22600;48.186;11.526;2022-07-29T07:47:11;25.60;57.90
34640;DHT22;22600;48.186;11.526;2022-07-29T07:49:37;25.60;57.80
34640;DHT22;22600;48.186;11.526;2022-07-29T07:52:03;25.60;57.80
34640;DHT22;22600;48.186;11.526;2022-07-29T07:54:28;25.70;57.90
34640;DHT22;22600;48.186;11.526;2022-07-29T07:56:54;25.70;57.90
34640;DHT22;22600;48.186;11.526;2022-07-29T07:59:20;25.60;57.80
34640;DHT22;22600;48.186;11.526;2022-07-29T08:01:45;25.60;57.80
34640;DHT22;22600;48.186;11.526;2022-07-29T08:04:11;25.60;57.80
34640;DHT22;22600;48.186;11.526;2022-07-29T08:06:36;23.30;56.60
34640;DHT22;22600;48.186;11.526;2022-07-29T08:09:03;25.60;57.80
34640;DHT22;22600;48.186;11.526;2022-07-29T08:11:29;25.60;57.80
34640;DHT22;22600;48.186;11.526;2022-07-29T08:13:55;25.60;57.80
34640;DHT22;22600;48.186;11.526;2022-07-29T08:16:21;25.60;57.80
34640;DHT22;22600;48.186;11.526;2022-07-29T08:18:47;25.70;57.90
34640;DHT22;22600;48.186;11.526;2022-07-29T08:21:14;25.60;57.80
34640;DHT22;22600;48.186;11.526;2022-07-29T08:23:40;25.60;57.80
34640;DHT22;22600;48.186;11.526;2022-07-29T08:26:12;25.60;57.80
34640;DHT22;22600;48.186;11.526;2022-07-29T08:28:39;25.60;57.80
34640;DHT22;22600;48.186;11.526;2022-07-29T08:31:05;25.60;57.80
34640;DHT22;22600;48.186;11.526;2022-07-29T08:33:32;25.60;57.80
34640;DHT22;22600;48.186;11.526;2022-07-29T08:35:58;25.60;57.90
34640;DHT22;22600;48.186;11.526;2022-07-29T08:38:24;25.60;57.80
34640;DHT22;22600;48.186;11.526;2022-07-29T08:40:51;25.60;57.90
34640;DHT22;22600;48.186;11.526;2022-07-29T08:43:18;25.50;57.80
34640;DHT22;22600;48.186;11.526;2022-07-29T08:45:48;25.50;57.80
34640;DHT22;22600;48.186;11.526;2022-07-29T08:48:18;25.60;57.90
34640;DHT22;22600;48.186;11.526;2022-07-29T08:50:45;25.50;57.90
34640;DHT22;22600;48.186;11.526;2022-07-29T08:53:13;25.50;57.90
34640;DHT22;22600;48.186;11.526;2022-07-29T08:55:41;25.50;58.00
34640;DHT22;22600;48.186;11.526;2022-07-29T08:58:09;25.50;58.00
34640;DHT22;22600;48.186;11.526;2022-07-29T09:00:37;25.50;58.00
34640;DHT22;22600;48.186;11.526;2022-07-29T09:03:05;25.50;58.10
34640;DHT22;22600;48.186;11.526;2022-07-29T09:05:31;25.50;58.10
34640;DHT22;22600;48.186;11.526;2022-07-29T09:07:58;25.50;58.20
34640;DHT22;22600;48.186;11.526;2022-07-29T09:10:24;25.50;58.20
34640;DHT22;22600;48.186;11.526;2022-07-29T09:12:49;25.50;58.20
34640;DHT22;22600;48.186;11.526;2022-07-29T09:15:15;25.50;58.20
34640;DHT22;22600;48.186;11.526;2022-07-29T09:17:46;25.40;58.20
34640;DHT22;22600;48.186;11.526;2022-07-29T09:20:14;25.50;58.20
34640;DHT22;22600;48.186;11.526;2022-07-29T09:22:40;25.40;57.60
34640;DHT22;22600;48.186;11.526;2022-07-29T09:25:06;25.40;58.10
34640;DHT22;22600;48.186;11.526;2022-07-29T09:27:32;25.40;58.20
34640;DHT22;22600;48.186;11.526;2022-07-29T09:30:04;25.40;58.10
34640;DHT22;22600;48.186;11.526;2022-07-29T09:32:31;25.40;58.20
34640;DHT22;22600;48.186;11.526;2022-07-29T09:35:19;25.40;58.10
34640;DHT22;22600;48.186;11.526;2022-07-29T09:37:46;25.40;58.20
34640;DHT22;22600;48.186;11.526;2022-07-29T09:40:16;25.40;58.20
34640;DHT22;22600;48.186;11.526;2022-07-29T09:42:42;26.90;59.20
34640;DHT22;22600;48.186;11.526;2022-07-29T09:45:08;25.40;58.30
34640;DHT22;22600;48.186;11.526;2022-07-29T09:47:45;25.40;58.30
34640;DHT22;22600;48.186;11.526;2022-07-29T09:50:12;25.40;58.30
34640;DHT22;22600;48.186;11.526;2022-07-29T09:52:50;24.40;57.80
34640;DHT22;22600;48.186;11.526;2022-07-29T09:55:16;25.40;58.30
34640;DHT22;22600;48.186;11.526;2022-07-29T09:57:42;25.40;58.30
34640;DHT22;22600;48.186;11.526;2022-07-29T10:00:09;25.40;58.30
34640;DHT22;22600;48.186;11.526;2022-07-29T10:02:36;25.30;58.30
34640;DHT22;22600;48.186;11.526;2022-07-29T10:05:05;25.30;58.30
34640;DHT22;22600;48.186;11.526;2022-07-29T10:07:45;25.30;58.30
34640;DHT22;22600;48.186;11.526;2022-07-29T10:10:19;25.30;58.30
34640;DHT22;22600;48.186;11.526;2022-07-29T10:12:56;25.40;58.50
34640;DHT22;22600;48.186;11.526;2022-07-29T10:15:28;25.30;58.50
34640;DHT22;22600;48.186;11.526;2022-07-29T10:17:55;25.30;58.50
34640;DHT22;22600;48.186;11.526;2022-07-29T10:20:24;25.40;58.50
34640;DHT22;22600;48.186;11.526;2022-07-29T10:22:51;25.30;58.50
34640;DHT22;22600;48.186;11.526;2022-07-29T10:25:17;25.30;58.60
34640;DHT22;22600;48.186;11.526;2022-07-29T10:27:44;25.30;58.60
34640;DHT22;22600;48.186;11.526;2022-07-29T10:30:11;25.30;58.60
34640;DHT22;22600;48.186;11.526;2022-07-29T10:36:01;25.30;58.60
34640;DHT22;22600;48.186;11.526;2022-07-29T10:38:49;25.30;58.60
34640;DHT22;22600;48.186;11.526;2022-07-29T10:44:24;25.30;58.70
34640;DHT22;22600;48.186;11.526;2022-07-29T10:46:51;25.30;58.60
34640;DHT22;22600;48.186;11.526;2022-07-29T10:49:22;25.30;58.70
34640;DHT22;22600;48.186;11.526;2022-07-29T10:51:59;25.20;58.60
34640;DHT22;22600;48.186;11.526;2022-07-29T10:57:20;25.30;58.80
34640;DHT22;22600;48.186;11.526;2022-07-29T10:59:51;25.30;58.80
34640;DHT22;22600;48.186;11.526;2022-07-29T11:05:04;25.30;58.90
34640;DHT22;22600;48.186;11.526;2022-07-29T11:07:32;25.30;59.00
34640;DHT22;22600;48.186;11.526;2022-07-29T11:15:04;25.30;59.00
34640;DHT22;22600;48.186;11.526;2022-07-29T11:20:42;25.20;59.00
34640;DHT22;22600;48.186;11.526;2022-07-29T11:23:29;25.20;58.90
34640;DHT22;22600;48.186;11.526;2022-07-29T11:26:14;25.30;59.00
34640;DHT22;22600;48.186;11.526;2022-07-29T11:29:08;25.20;59.00
34640;DHT22;22600;48.186;11.526;2022-07-29T11:31:50;25.30;59.10
34640;DHT22;22600;48.186;11.526;2022-07-29T11:34:30;25.20;59.00
34640;DHT22;22600;48.186;11.526;2022-07-29T11:39:36;25.20;59.00
34640;DHT22;22600;48.186;11.526;2022-07-29T11:45:05;25.20;59.00
34640;DHT22;22600;48.186;11.526;2022-07-29T11:47:33;25.20;59.10
34640;DHT22;22600;48.186;11.526;2022-07-29T11:50:00;25.30;59.10
34640;DHT22;22600;48.186;11.526;2022-07-29T11:52:38;25.20;59.00
34640;DHT22;22600;48.186;11.526;2022-07-29T11:55:09;25.20;59.10
34640;DHT22;22600;48.186;11.526;2022-07-29T11:57:35;25.20;60.50
34640;DHT22;22600;48.186;11.526;2022-07-29T12:00:06;25.20;61.80
34640;DHT22;22600;48.186;11.526;2022-07-29T12:02:43;25.20;62.50
34640;DHT22;22600;48.186;11.526;2022-07-29T12:05:09;25.20;61.50
34640;DHT22;22600;48.186;11.526;2022-07-29T12:07:39;25.20;60.70
34640;DHT22;22600;48.186;11.526;2022-07-29T12:10:05;25.20;60.30
34640;DHT22;22600;48.186;11.526;2022-07-29T12:12:32;25.20;60.20
34640;DHT22;22600;48.186;11.526;2022-07-29T12:14:57;25.30;60.20
34640;DHT22;22600;48.186;11.526;2022-07-29T12:17:26;25.20;60.10
34640;DHT22;22600;48.186;11.526;2022-07-29T12:19:53;25.30;60.80
34640;DHT22;22600;48.186;11.526;2022-07-29T12:24:55;25.20;59.40
34640;DHT22;22600;48.186;11.526;2022-07-29T12:27:21;25.20;59.90
34640;DHT22;22600;48.186;11.526;2022-07-29T12:30:01;25.20;59.90
34640;DHT22;22600;48.186;11.526;2022-07-29T12:35:06;25.20;59.60
34640;DHT22;22600;48.186;11.526;2022-07-29T12:37:34;25.20;59.40
34640;DHT22;22600;48.186;11.526;2022-07-29T12:40:01;25.20;59.20
34640;DHT22;22600;48.186;11.526;2022-07-29T12:42:27;25.20;59.10
34640;DHT22;22600;48.186;11.526;2022-07-29T12:44:53;25.20;58.90
34640;DHT22;22600;48.186;11.526;2022-07-29T12:47:19;25.20;58.60
34640;DHT22;22600;48.186;11.526;2022-07-29T12:49:45;25.20;58.30
34640;DHT22;22600;48.186;11.526;2022-07-29T12:52:44;25.20;57.90
34640;DHT22;22600;48.186;11.526;2022-07-29T12:55:10;25.20;57.60
34640;DHT22;22600;48.186;11.526;2022-07-29T12:57:50;25.10;57.30
34640;DHT22;22600;48.186;11.526;2022-07-29T13:00:24;25.20;57.20
34640;DHT22;22600;48.186;11.526;2022-07-29T13:02:57;25.20;57.10
34640;DHT22;22600;48.186;11.526;2022-07-29T13:05:23;25.20;57.10
34640;DHT22;22600;48.186;11.526;2022-07-29T13:07:50;27.30;58.50
34640;DHT22;22600;48.186;11.526;2022-07-29T13:10:20;25.20;57.00
34640;DHT22;22600;48.186;11.526;2022-07-29T13:15:31;25.20;56.70
34640;DHT22;22600;48.186;11.526;2022-07-29T13:17:56;25.10;56.60
34640;DHT22;22600;48.186;11.526;2022-07-29T13:20:28;25.10;56.50
34640;DHT22;22600;48.186;11.526;2022-07-29T13:22:58;25.10;56.50
34640;DHT22;22600;48.186;11.526;2022-07-29T13:25:29;25.10;56.40
34640;DHT22;22600;48.186;11.526;2022-07-29T13:27:56;25.10;56.40
34640;DHT22;22600;48.186;11.526;2022-07-29T13:30:22;25.10;56.40
34640;DHT22;22600;48.186;11.526;2022-07-29T13:32:49;25.10;56.30
34640;DHT22;22600;48.186;11.526;2022-07-29T13:35:14;25.10;56.10
34640;DHT22;22600;48.186;11.526;2022-07-29T13:37:40;25.20;56.00
34640;DHT22;22600;48.186;11.526;2022-07-29T13:40:07;25.10;55.90
34640;DHT22;22600;48.186;11.526;2022-07-29T13:42:33;25.10;55.80
34640;DHT22;22600;48.186;11.526;2022-07-29T13:44:59;25.10;55.70
34640;DHT22;22600;48.186;11.526;2022-07-29T13:47:26;25.10;55.70
34640;DHT22;22600;48.186;11.526;2022-07-29T13:49:52;25.10;55.60
34640;DHT22;22600;48.186;11.526;2022-07-29T13:52:18;25.20;55.70
34640;DHT22;22600;48.186;11.526;2022-07-29T13:54:44;25.10;55.70
34640;DHT22;22600;48.186;11.526;2022-07-29T13:57:10;25.10;55.70
34640;DHT22;22600;48.186;11.526;2022-07-29T13:59:36;25.10;55.70
34640;DHT22;22600;48.186;11.526;2022-07-29T14:02:02;25.10;55.80
34640;DHT22;22600;48.186;11.526;2022-07-29T14:04:28;25.10;55.80
34640;DHT22;22600;48.186;11.526;2022-07-29T14:06:53;25.10;55.90
34640;DHT22;22600;48.186;11.526;2022-07-29T14:09:19;25.20;56.00
34640;DHT22;22600;48.186;11.526;2022-07-29T14:11:45;25.10;56.00
34640;DHT22;22600;48.186;11.526;2022-07-29T14:14:11;25.10;55.90
34640;DHT22;22600;48.186;11.526;2022-07-29T14:16:36;25.10;56.00
34640;DHT22;22600;48.186;11.526;2022-07-29T14:19:02;25.10;55.90
34640;DHT22;22600;48.186;11.526;2022-07-29T14:21:28;25.10;56.00
34640;DHT22;22600;48.186;11.526;2022-07-29T14:23:53;25.10;56.10
34640;DHT22;22600;48.186;11.526;2022-07-29T14:26:20;25.10;56.10
34640;DHT22;22600;48.186;11.526;2022-07-29T14:28:46;25.10;55.90
34640;DHT22;22600;48.186;11.526;2022-07-29T14:31:12;25.10;56.40
34640;DHT22;22600;48.186;11.526;2022-07-29T14:33:37;25.10;55.80
34640;DHT22;22600;48.186;11.526;2022-07-29T14:36:03;25.10;55.70
34640;DHT22;22600;48.186;11.526;2022-07-29T14:38:29;25.10;56.30
34640;DHT22;22600;48.186;11.526;2022-07-29T14:40:54;28.00;57.40
34640;DHT22;22600;48.186;11.526;2022-07-29T14:43:20;25.10;55.60
34640;DHT22;22600;48.186;11.526;2022-07-29T14:45:45;25.10;55.50
34640;DHT22;22600;48.186;11.526;2022-07-29T14:48:11;25.10;55.50
34640;DHT22;22600;48.186;11.526;2022-07-29T14:50:37;25.10;55.40
34640;DHT22;22600;48.186;11.526;2022-07-29T14:53:02;25.10;55.30
34640;DHT22;22600;48.186;11.526;2022-07-29T14:55:28;25.10;55.30
34640;DHT22;22600;48.186;11.526;2022-07-29T14:57:54;25.10;55.30
34640;DHT22;22600;48.186;11.526;2022-07-29T15:00:20;25.10;55.30
34640;DHT22;22600;48.186;11.526;2022-07-29T15:02:46;25.10;55.30
34640;DHT22;22600;48.186;11.526;2022-07-29T15:05:12;25.10;55.30
34640;DHT22;22600;48.186;11.526;2022-07-29T15:07:38;25.10;55.40
34640;DHT22;22600;48.186;11.526;2022-07-29T15:10:03;25.10;55.40
34640;DHT22;22600;48.186;11.526;2022-07-29T15:12:30;25.10;55.40
34640;DHT22;22600;48.186;11.526;2022-07-29T15:14:55;25.10;55.40
34640;DHT22;22600;48.186;11.526;2022-07-29T15:17:21;25.10;55.50
34640;DHT22;22600;48.186;11.526;2022-07-29T15:19:47;25.10;55.60
34640;DHT22;22600;48.186;11.526;2022-07-29T15:22:12;25.10;55.50
34640;DHT22;22600;48.186;11.526;2022-07-29T15:24:38;25.10;55.50
34640;DHT22;22600;48.186;11.526;2022-07-29T15:27:04;25.10;55.70
34640;DHT22;22600;48.186;11.526;2022-07-29T15:29:30;25.10;55.60
34640;DHT22;22600;48.186;11.526;2022-07-29T15:31:55;25.10;55.70
34640;DHT22;22600;48.186;11.526;2022-07-29T15:34:21;25.10;55.90
34640;DHT22;22600;48.186;11.526;2022-07-29T15:36:49;25.10;55.90
34640;DHT22;22600;48.186;11.526;2022-07-29T15:39:15;25.10;55.90
34640;DHT22;22600;48.186;11.526;2022-07-29T15:41:41;25.00;55.90
34640;DHT22;22600;48.186;11.526;2022-07-29T15:44:06;25.00;56.10
34640;DHT22;22600;48.186;11.526;2022-07-29T15:46:32;25.10;56.20
34640;DHT22;22600;48.186;11.526;2022-07-29T15:49:16;25.10;56.30
34640;DHT22;22600;48.186;11.526;2022-07-29T15:51:42;25.10;56.40
34640;DHT22;22600;48.186;11.526;2022-07-29T15:54:07;25.10;56.40
34640;DHT22;22600;48.186;11.526;2022-07-29T15:56:33;25.10;56.40
34640;DHT22;22600;48.186;11.526;2022-07-29T15:58:58;25.10;56.50
34640;DHT22;22600;48.186;11.526;2022-07-29T16:01:24;25.10;56.50